createdAt,value
2023-03-11T00:01:58.294Z,3.16
2023-03-11T00:06:59.994Z,3.27
2023-03-11T00:12:02.916Z,3.20
2023-03-11T00:17:04.580Z,3.24
2023-03-11T00:22:06.196Z,3.22
2023-03-11T00:27:07.869Z,3.19
2023-03-11T00:32:09.560Z,3.16
2023-03-11T00:37:11.954Z,3.13
2023-03-11T00:42:13.643Z,3.17
2023-03-11T00:47:15.264Z,3.19
2023-03-11T00:52:16.986Z,3.23
2023-03-11T00:57:18.725Z,3.15
2023-03-11T01:02:21.029Z,3.19
2023-03-11T01:07:23.690Z,3.14
2023-03-11T01:12:25.447Z,3.03
2023-03-11T01:17:27.124Z,3.10
2023-03-11T01:22:28.742Z,3.12
2023-03-11T01:27:31.122Z,3.10
2023-03-11T01:32:32.770Z,3.09
2023-03-11T01:37:34.608Z,3.13
2023-03-11T01:42:36.321Z,3.17
2023-03-11T01:47:40.335Z,3.11
2023-03-11T01:52:44.808Z,3.01
2023-03-11T01:57:47.789Z,3.11
2023-03-11T02:02:52.784Z,3.14
2023-03-11T02:07:56.362Z,3.14
2023-03-11T02:13:03.503Z,3.19
2023-03-11T02:18:07.171Z,3.22
2023-03-11T02:23:09.922Z,3.21
2023-03-11T02:28:13.534Z,3.10
2023-03-11T02:33:16.842Z,3.08
2023-03-11T02:38:20.877Z,3.11
2023-03-11T02:43:41.079Z,3.10
2023-03-11T02:48:44.729Z,3.08
2023-03-11T02:53:58.463Z,3.06
2023-03-11T02:59:01.398Z,3.07
2023-03-11T03:04:04.859Z,3.07
2023-03-11T03:09:08.229Z,2.97
2023-03-11T03:14:09.927Z,2.94
2023-03-11T03:19:11.696Z,2.96
2023-03-11T03:24:13.486Z,3.03
2023-03-11T03:29:15.346Z,2.99
2023-03-11T03:34:17.868Z,2.97
2023-03-11T03:39:19.997Z,2.98
2023-03-11T03:44:23.715Z,2.99
2023-03-11T03:49:25.440Z,2.87
2023-03-11T03:54:27.672Z,2.88
2023-03-11T03:59:30.429Z,2.89
2023-03-11T04:04:34.572Z,2.84
2023-03-11T04:09:40.069Z,2.80
2023-03-11T04:14:42.454Z,2.69
2023-03-11T04:19:44.980Z,2.74
2023-03-11T04:24:47.460Z,2.59
2023-03-11T04:29:49.456Z,2.52
2023-03-11T04:34:51.218Z,2.55
2023-03-11T04:39:53.468Z,2.50
2023-03-11T04:44:55.385Z,2.41
2023-03-11T04:49:57.387Z,2.18
2023-03-11T04:54:59.647Z,2.13
2023-03-11T05:00:01.346Z,2.06
2023-03-11T05:05:06.750Z,2.01
2023-03-11T05:10:09.353Z,1.91
2023-03-11T05:15:12.437Z,1.88
2023-03-11T05:20:15.830Z,1.73
2023-03-11T05:25:18.358Z,1.71
2023-03-11T05:30:20.278Z,1.74
2023-03-11T05:35:23.499Z,1.66
2023-03-11T05:40:25.306Z,1.58
2023-03-11T05:45:27.538Z,1.63
2023-03-11T05:50:31.497Z,1.55
2023-03-11T05:55:33.314Z,1.49
2023-03-11T06:00:35.676Z,1.49
2023-03-11T06:05:45.444Z,1.41
2023-03-11T06:10:49.020Z,1.43
2023-03-11T06:15:52.022Z,1.23
2023-03-11T06:20:59.211Z,1.33
2023-03-11T06:26:05.897Z,1.28
2023-03-11T06:31:19.558Z,1.30
2023-03-11T06:36:22.337Z,1.25
2023-03-11T06:41:25.670Z,1.11
2023-03-11T06:46:27.794Z,1.18
2023-03-11T06:51:30.806Z,1.25
2023-03-11T06:56:32.805Z,1.27
2023-03-11T07:01:39.508Z,1.19
2023-03-11T07:06:43.459Z,1.39
2023-03-11T07:11:53.030Z,1.63
2023-03-11T07:17:01.390Z,1.64
2023-03-11T07:22:08.552Z,1.56
2023-03-11T07:27:10.199Z,1.72
2023-03-11T07:32:11.925Z,1.90
2023-03-11T07:37:14.292Z,2.14
2023-03-11T07:42:16.009Z,2.09
2023-03-11T07:47:17.688Z,2.33
2023-03-11T07:52:20.237Z,2.68
2023-03-11T07:57:21.919Z,2.61
2023-03-11T08:02:23.677Z,2.72
2023-03-11T08:07:25.395Z,2.96
2023-03-11T08:12:27.006Z,3.21
2023-03-11T08:17:28.781Z,3.65
2023-03-11T08:22:30.554Z,3.82
2023-03-11T08:27:32.302Z,4.09
2023-03-11T08:32:34.094Z,4.51
2023-03-11T08:37:35.706Z,4.88
2023-03-11T08:42:37.377Z,4.86
2023-03-11T08:47:39.303Z,4.82
2023-03-11T08:52:41.129Z,4.98
2023-03-11T08:57:42.840Z,5.18
2023-03-11T09:02:44.525Z,5.34
2023-03-11T09:07:46.342Z,5.41
2023-03-11T09:12:47.978Z,5.76
2023-03-11T09:17:49.654Z,6.33
2023-03-11T09:22:51.284Z,6.60
2023-03-11T09:27:52.842Z,6.63
2023-03-11T09:32:54.714Z,6.66
2023-03-11T09:37:56.391Z,6.74
2023-03-11T09:43:19.343Z,6.67
2023-03-11T09:48:32.363Z,6.65
2023-03-11T09:53:49.406Z,6.53
2023-03-11T09:59:00.022Z,6.42
2023-03-11T10:04:15.012Z,6.38
2023-03-11T10:09:37.029Z,6.71
2023-03-11T10:15:17.235Z,6.76
2023-03-11T10:20:29.204Z,6.84
2023-03-11T10:25:46.653Z,7.06
2023-03-11T10:30:53.027Z,7.37
2023-03-11T10:35:58.447Z,7.37
2023-03-11T10:41:05.008Z,7.78
2023-03-11T10:46:18.828Z,8.05
2023-03-11T10:51:27.054Z,8.39
2023-03-11T10:56:30.644Z,8.54
2023-03-11T11:01:32.997Z,8.53
2023-03-11T11:06:36.135Z,9.09
2023-03-11T11:11:39.623Z,9.28
2023-03-11T11:16:41.294Z,9.23
2023-03-11T11:21:48.797Z,9.34
2023-03-11T11:27:15.109Z,9.68
2023-03-11T11:32:21.624Z,9.55
2023-03-11T11:37:26.881Z,9.87
2023-03-11T11:42:31.313Z,9.93
2023-03-11T11:47:39.555Z,10.38
2023-03-11T11:52:47.978Z,9.49
2023-03-11T11:57:51.429Z,9.58
2023-03-11T12:03:10.342Z,9.13
2023-03-11T12:08:30.764Z,9.88
2023-03-11T12:14:02.096Z,9.65
2023-03-11T12:19:19.613Z,9.66
2023-03-11T12:24:45.752Z,9.78
2023-03-11T12:29:52.895Z,10.30
2023-03-11T12:34:54.574Z,10.01
2023-03-11T12:39:56.316Z,10.06
2023-03-11T12:45:36.530Z,10.26
2023-03-11T12:50:41.265Z,10.35
2023-03-11T12:56:01.303Z,9.73
2023-03-11T13:01:20.891Z,10.05
2023-03-11T13:06:41.273Z,9.65
2023-03-11T13:11:45.902Z,9.39
2023-03-11T13:16:47.939Z,9.47
2023-03-11T13:21:49.576Z,9.40
2023-03-11T13:27:02.194Z,9.35
2023-03-11T13:32:45.280Z,9.71
2023-03-11T13:38:24.220Z,8.97
2023-03-11T13:43:26.518Z,8.26
2023-03-11T13:48:37.680Z,8.64
2023-03-11T13:53:46.100Z,8.96
2023-03-11T13:58:47.696Z,8.34
2023-03-11T14:03:49.544Z,8.59
2023-03-11T14:08:55.619Z,8.68
2023-03-11T14:13:57.285Z,8.33
2023-03-11T14:19:04.855Z,8.46
2023-03-11T14:24:06.621Z,8.25
2023-03-11T14:29:12.804Z,8.11
2023-03-11T14:34:20.124Z,8.59
2023-03-11T14:39:33.920Z,8.50
2023-03-11T14:44:40.419Z,8.57
2023-03-11T14:49:42.878Z,8.43
2023-03-11T14:54:45.876Z,8.40
2023-03-11T14:59:51.089Z,8.33
2023-03-11T15:04:54.637Z,8.49
2023-03-11T15:09:56.646Z,8.07
2023-03-11T15:15:01.455Z,7.80
2023-03-11T15:20:55.283Z,7.44
2023-03-11T15:26:55.960Z,7.43
2023-03-11T15:33:28.948Z,7.54
2023-03-11T15:39:26.567Z,7.06
2023-03-11T15:44:41.206Z,7.24
2023-03-11T15:49:43.267Z,7.13
2023-03-11T15:54:54.724Z,6.93
2023-03-11T15:59:59.976Z,6.92
2023-03-11T16:05:01.887Z,6.65
2023-03-11T16:10:04.514Z,6.44
2023-03-11T16:15:07.300Z,6.67
2023-03-11T16:20:09.688Z,6.60
2023-03-11T16:25:23.667Z,6.30
2023-03-11T16:30:29.727Z,6.28
2023-03-11T16:35:31.422Z,6.49
2023-03-11T16:40:33.091Z,6.27
2023-03-11T16:45:34.787Z,6.34
2023-03-11T16:50:37.638Z,6.34
2023-03-11T16:55:39.602Z,6.24
2023-03-11T17:00:42.117Z,6.35
2023-03-11T17:05:43.901Z,6.31
2023-03-11T17:10:46.465Z,6.25
2023-03-11T17:16:02.557Z,6.18
2023-03-11T17:21:09.799Z,6.10
2023-03-11T17:26:16.659Z,6.11
2023-03-11T17:31:19.015Z,5.81
2023-03-11T17:36:20.846Z,5.93
2023-03-11T17:41:23.450Z,5.91
2023-03-11T17:46:25.260Z,5.86
2023-03-11T17:51:26.965Z,5.83
2023-03-11T17:56:28.744Z,5.82
2023-03-11T18:01:30.618Z,5.68
2023-03-11T18:06:32.303Z,5.76
2023-03-11T18:11:33.984Z,5.82
2023-03-11T18:16:35.691Z,5.91
2023-03-11T18:21:37.712Z,5.91
2023-03-11T18:26:39.380Z,5.82
2023-03-11T18:31:41.244Z,5.69
2023-03-11T18:36:43.294Z,5.71
2023-03-11T18:41:44.997Z,5.73
2023-03-11T18:46:46.677Z,5.69
2023-03-11T18:51:48.278Z,5.70
2023-03-11T18:56:50.311Z,5.58
2023-03-11T19:01:51.940Z,5.48
2023-03-11T19:06:53.680Z,5.41
2023-03-11T19:11:55.376Z,5.33
2023-03-11T19:16:57.283Z,5.38
2023-03-11T19:21:59.016Z,5.36
2023-03-11T19:27:00.709Z,5.41
2023-03-11T19:32:03.656Z,5.40
2023-03-11T19:37:05.596Z,5.33
2023-03-11T19:42:07.277Z,5.37
2023-03-11T19:47:09.191Z,5.38
2023-03-11T19:52:11.239Z,5.14
2023-03-11T19:57:12.878Z,5.22
2023-03-11T20:02:14.766Z,5.18
2023-03-11T20:07:16.903Z,5.19
2023-03-11T20:12:18.831Z,5.16
2023-03-11T20:17:20.578Z,5.20
2023-03-11T20:22:22.267Z,5.21
2023-03-11T20:27:24.035Z,5.21
2023-03-11T20:32:25.831Z,5.09
2023-03-11T20:37:29.967Z,5.15
2023-03-11T20:42:31.970Z,5.08
2023-03-11T20:47:33.618Z,5.01
2023-03-11T20:52:35.988Z,4.87
2023-03-11T20:57:38.702Z,4.78
2023-03-11T21:02:42.327Z,4.90
2023-03-11T21:07:44.248Z,4.71
2023-03-11T21:12:45.853Z,4.55
2023-03-11T21:17:47.579Z,4.68
2023-03-11T21:22:49.649Z,4.53
2023-03-11T21:27:51.372Z,4.69
2023-03-11T21:32:53.141Z,4.57
2023-03-11T21:37:55.151Z,4.54
2023-03-11T21:42:56.825Z,4.49
2023-03-11T21:47:58.428Z,4.59
2023-03-11T21:53:00.211Z,4.65
2023-03-11T21:58:02.124Z,4.50
2023-03-11T22:03:04.093Z,4.62
2023-03-11T22:08:05.779Z,4.75
2023-03-11T22:13:07.971Z,4.76
2023-03-11T22:18:10.677Z,4.75
2023-03-11T22:23:12.539Z,4.72
2023-03-11T22:28:14.823Z,4.80
2023-03-11T22:33:17.020Z,4.69
2023-03-11T22:38:18.785Z,4.68
2023-03-11T22:43:20.868Z,4.76
2023-03-11T22:48:22.529Z,4.73
2023-03-11T22:53:25.041Z,4.53
2023-03-11T22:58:26.728Z,4.59
2023-03-11T23:03:28.593Z,4.57
2023-03-11T23:08:30.378Z,4.76
2023-03-11T23:13:35.649Z,4.44
2023-03-11T23:18:37.955Z,4.33
2023-03-11T23:23:39.662Z,4.39
2023-03-11T23:28:42.455Z,4.27
2023-03-11T23:33:45.363Z,4.19
2023-03-11T23:38:47.743Z,4.25
2023-03-11T23:43:49.652Z,4.14
2023-03-11T23:48:51.545Z,4.07
2023-03-11T23:53:53.238Z,3.93
2023-03-11T23:58:54.909Z,4.14
